sensor_id;sensor_type;location;lat;lon;timestamp;temperature;humidity
30889;DHT22;51092;50.874;7.024;2023-07-31T00:00:56;17.70;99.90
30889;DHT22;51092;50.874;7.024;2023-07-31T00:01:59;17.70;99.90
30889;DHT22;51092;50.874;7.024;2023-07-31T00:03:00;17.70;99.90
30889;DHT22;51092;50.874;7.024;2023-07-31T00:04:03;17.70;99.90
30889;DHT22;51092;50.874;7.024;2023-07-31T00:05:05;17.70;99.90
30889;DHT22;51092;50.874;7.024;2023-07-31T00:06:07;17.70;99.90
30889;DHT22;51092;50.874;7.024;2023-07-31T00:07:09;17.70;99.90
30889;DHT22;51092;50.874;7.024;2023-07-31T00:08:11;17.70;99.90
30889;DHT22;51092;50.874;7.024;2023-07-31T00:09:13;17.70;99.90
30889;DHT22;51092;50.874;7.024;2023-07-31T00:10:15;17.80;99.90
30889;DHT22;51092;50.874;7.024;2023-07-31T00:11:17;17.80;99.90
30889;DHT22;51092;50.874;7.024;2023-07-31T00:12:20;17.80;99.90
30889;DHT22;51092;50.874;7.024;2023-07-31T00:13:22;17.80;99.90
30889;DHT22;51092;50.874;7.024;2023-07-31T00:14:24;17.80;99.90
30889;DHT22;51092;50.874;7.024;2023-07-31T00:15:26;17.80;99.90
30889;DHT22;51092;50.874;7.024;2023-07-31T00:16:28;17.70;99.90
30889;DHT22;51092;50.874;7.024;2023-07-31T00:17:30;17.80;99.90
30889;DHT22;51092;50.874;7.024;2023-07-31T00:18:32;17.80;99.90
30889;DHT22;51092;50.874;7.024;2023-07-31T00:19:34;17.70;99.90
30889;DHT22;51092;50.874;7.024;2023-07-31T00:20:36;17.80;99.90
30889;DHT22;51092;50.874;7.024;2023-07-31T00:21:38;17.80;99.90
30889;DHT22;51092;50.874;7.024;2023-07-31T00:22:40;17.80;99.90
30889;DHT22;51092;50.874;7.024;2023-07-31T00:23:42;17.90;99.90
30889;DHT22;51092;50.874;7.024;2023-07-31T00:24:44;17.80;99.90
30889;DHT22;51092;50.874;7.024;2023-07-31T00:25:46;17.80;99.90
30889;DHT22;51092;50.874;7.024;2023-07-31T00:26:48;17.80;99.90
30889;DHT22;51092;50.874;7.024;2023-07-31T00:27:51;17.70;99.90
30889;DHT22;51092;50.874;7.024;2023-07-31T00:28:53;17.70;99.90
30889;DHT22;51092;50.874;7.024;2023-07-31T00:29:55;17.70;99.90
30889;DHT22;51092;50.874;7.024;2023-07-31T00:30:56;17.80;99.90
30889;DHT22;51092;50.874;7.024;2023-07-31T00:31:59;17.80;99.90
30889;DHT22;51092;50.874;7.024;2023-07-31T00:33:00;17.90;99.90
30889;DHT22;51092;50.874;7.024;2023-07-31T00:34:02;17.90;99.90
30889;DHT22;51092;50.874;7.024;2023-07-31T00:35:05;17.90;99.90
30889;DHT22;51092;50.874;7.024;2023-07-31T00:36:07;18.00;99.90
30889;DHT22;51092;50.874;7.024;2023-07-31T00:37:09;18.10;99.90
30889;DHT22;51092;50.874;7.024;2023-07-31T00:38:11;18.10;99.90
30889;DHT22;51092;50.874;7.024;2023-07-31T00:39:13;18.10;99.90
30889;DHT22;51092;50.874;7.024;2023-07-31T00:40:15;18.10;99.90
30889;DHT22;51092;50.874;7.024;2023-07-31T00:41:17;18.10;99.90
30889;DHT22;51092;50.874;7.024;2023-07-31T00:42:19;18.10;99.90
30889;DHT22;51092;50.874;7.024;2023-07-31T00:43:22;18.10;99.90
30889;DHT22;51092;50.874;7.024;2023-07-31T00:44:24;18.10;99.90
30889;DHT22;51092;50.874;7.024;2023-07-31T00:45:26;18.10;99.90
30889;DHT22;51092;50.874;7.024;2023-07-31T00:46:29;18.10;99.90
30889;DHT22;51092;50.874;7.024;2023-07-31T00:47:31;18.10;99.90
30889;DHT22;51092;50.874;7.024;2023-07-31T00:48:34;18.10;99.90
30889;DHT22;51092;50.874;7.024;2023-07-31T00:49:37;18.10;99.90
30889;DHT22;51092;50.874;7.024;2023-07-31T00:50:39;18.10;99.90
30889;DHT22;51092;50.874;7.024;2023-07-31T00:51:41;18.10;99.90
30889;DHT22;51092;50.874;7.024;2023-07-31T00:52:44;18.00;99.90
30889;DHT22;51092;50.874;7.024;2023-07-31T00:53:46;18.00;99.90
30889;DHT22;51092;50.874;7.024;2023-07-31T00:54:49;18.00;99.90
30889;DHT22;51092;50.874;7.024;2023-07-31T00:55:52;18.00;99.90
30889;DHT22;51092;50.874;7.024;2023-07-31T00:56:55;18.10;99.90
30889;DHT22;51092;50.874;7.024;2023-07-31T00:57:57;18.10;99.90
30889;DHT22;51092;50.874;7.024;2023-07-31T00:59:01;18.10;99.90
30889;DHT22;51092;50.874;7.024;2023-07-31T01:00:03;18.00;99.90
30889;DHT22;51092;50.874;7.024;2023-07-31T01:01:05;18.10;99.90
30889;DHT22;51092;50.874;7.024;2023-07-31T01:02:07;18.00;99.90
30889;DHT22;51092;50.874;7.024;2023-07-31T01:03:10;18.00;99.90
30889;DHT22;51092;50.874;7.024;2023-07-31T01:04:12;18.00;99.90
30889;DHT22;51092;50.874;7.024;2023-07-31T01:05:14;18.10;99.90
30889;DHT22;51092;50.874;7.024;2023-07-31T01:06:22;18.00;99.90
30889;DHT22;51092;50.874;7.024;2023-07-31T01:07:30;18.00;99.90
30889;DHT22;51092;50.874;7.024;2023-07-31T01:08:37;18.00;99.90
30889;DHT22;51092;50.874;7.024;2023-07-31T01:09:44;18.10;99.90
30889;DHT22;51092;50.874;7.024;2023-07-31T01:10:50;18.10;99.90
30889;DHT22;51092;50.874;7.024;2023-07-31T01:11:56;18.10;99.90
30889;DHT22;51092;50.874;7.024;2023-07-31T01:13:01;18.10;99.90
30889;DHT22;51092;50.874;7.024;2023-07-31T01:14:06;18.10;99.90
30889;DHT22;51092;50.874;7.024;2023-07-31T01:15:09;18.10;99.90
30889;DHT22;51092;50.874;7.024;2023-07-31T01:16:12;18.00;99.90
30889;DHT22;51092;50.874;7.024;2023-07-31T01:17:14;18.00;99.90
30889;DHT22;51092;50.874;7.024;2023-07-31T01:18:16;18.00;99.90
30889;DHT22;51092;50.874;7.024;2023-07-31T01:19:20;18.00;99.90
30889;DHT22;51092;50.874;7.024;2023-07-31T01:20:25;18.10;99.90
30889;DHT22;51092;50.874;7.024;2023-07-31T01:21:47;18.10;99.90
30889;DHT22;51092;50.874;7.024;2023-07-31T01:23:05;18.10;99.90
30889;DHT22;51092;50.874;7.024;2023-07-31T01:24:20;18.00;99.90
30889;DHT22;51092;50.874;7.024;2023-07-31T01:25:35;18.00;99.90
30889;DHT22;51092;50.874;7.024;2023-07-31T01:26:46;18.00;99.90
30889;DHT22;51092;50.874;7.024;2023-07-31T01:27:53;18.00;99.90
30889;DHT22;51092;50.874;7.024;2023-07-31T01:29:03;18.00;99.90
30889;DHT22;51092;50.874;7.024;2023-07-31T01:30:09;18.00;99.90
30889;DHT22;51092;50.874;7.024;2023-07-31T01:31:19;18.00;99.90
30889;DHT22;51092;50.874;7.024;2023-07-31T01:32:22;18.00;99.90
30889;DHT22;51092;50.874;7.024;2023-07-31T01:33:25;18.00;99.90
30889;DHT22;51092;50.874;7.024;2023-07-31T01:34:28;18.00;99.90
30889;DHT22;51092;50.874;7.024;2023-07-31T01:35:31;18.00;99.90
30889;DHT22;51092;50.874;7.024;2023-07-31T01:36:32;18.00;99.90
30889;DHT22;51092;50.874;7.024;2023-07-31T01:37:35;18.10;99.90
30889;DHT22;51092;50.874;7.024;2023-07-31T01:38:37;18.00;99.90
30889;DHT22;51092;50.874;7.024;2023-07-31T01:39:39;18.00;99.90
30889;DHT22;51092;50.874;7.024;2023-07-31T01:40:41;18.00;99.90
30889;DHT22;51092;50.874;7.024;2023-07-31T01:41:45;18.00;99.90
30889;DHT22;51092;50.874;7.024;2023-07-31T01:42:46;18.10;99.90
30889;DHT22;51092;50.874;7.024;2023-07-31T01:43:46;18.10;99.90
30889;DHT22;51092;50.874;7.024;2023-07-31T01:44:48;18.10;99.90
30889;DHT22;51092;50.874;7.024;2023-07-31T01:45:50;18.10;99.90
30889;DHT22;51092;50.874;7.024;2023-07-31T01:46:52;18.20;99.90
30889;DHT22;51092;50.874;7.024;2023-07-31T01:47:54;18.10;99.90
30889;DHT22;51092;50.874;7.024;2023-07-31T01:48:56;18.10;99.90
30889;DHT22;51092;50.874;7.024;2023-07-31T01:49:58;18.10;99.90
30889;DHT22;51092;50.874;7.024;2023-07-31T01:51:00;18.10;99.90
30889;DHT22;51092;50.874;7.024;2023-07-31T01:52:02;18.10;99.90
30889;DHT22;51092;50.874;7.024;2023-07-31T01:53:05;18.10;99.90
30889;DHT22;51092;50.874;7.024;2023-07-31T01:54:06;18.20;99.90
30889;DHT22;51092;50.874;7.024;2023-07-31T01:55:09;18.20;99.90
30889;DHT22;51092;50.874;7.024;2023-07-31T01:56:10;18.20;99.90
30889;DHT22;51092;50.874;7.024;2023-07-31T01:57:14;18.20;99.90
30889;DHT22;51092;50.874;7.024;2023-07-31T01:58:15;18.20;99.90
30889;DHT22;51092;50.874;7.024;2023-07-31T01:59:18;18.20;99.90
30889;DHT22;51092;50.874;7.024;2023-07-31T02:00:19;18.20;99.90
30889;DHT22;51092;50.874;7.024;2023-07-31T02:01:22;18.20;99.90
30889;DHT22;51092;50.874;7.024;2023-07-31T02:02:23;18.20;99.90
30889;DHT22;51092;50.874;7.024;2023-07-31T02:03:26;18.20;99.90
30889;DHT22;51092;50.874;7.024;2023-07-31T02:04:27;18.20;99.90
30889;DHT22;51092;50.874;7.024;2023-07-31T02:05:30;18.20;99.90
30889;DHT22;51092;50.874;7.024;2023-07-31T02:06:31;18.20;99.90
30889;DHT22;51092;50.874;7.024;2023-07-31T02:07:33;18.20;99.90
30889;DHT22;51092;50.874;7.024;2023-07-31T02:08:35;18.20;99.90
30889;DHT22;51092;50.874;7.024;2023-07-31T02:09:37;18.20;99.90
30889;DHT22;51092;50.874;7.024;2023-07-31T02:10:39;18.20;99.90
30889;DHT22;51092;50.874;7.024;2023-07-31T02:11:40;18.20;99.90
30889;DHT22;51092;50.874;7.024;2023-07-31T02:12:44;18.20;99.90
30889;DHT22;51092;50.874;7.024;2023-07-31T02:13:46;18.20;99.90
30889;DHT22;51092;50.874;7.024;2023-07-31T02:14:49;18.10;99.90
30889;DHT22;51092;50.874;7.024;2023-07-31T02:15:50;18.20;99.90
30889;DHT22;51092;50.874;7.024;2023-07-31T02:16:52;18.20;99.90
30889;DHT22;51092;50.874;7.024;2023-07-31T02:17:54;18.10;99.90
30889;DHT22;51092;50.874;7.024;2023-07-31T02:18:56;18.20;99.90
30889;DHT22;51092;50.874;7.024;2023-07-31T02:19:58;18.20;99.90
30889;DHT22;51092;50.874;7.024;2023-07-31T02:21:00;18.20;99.90
30889;DHT22;51092;50.874;7.024;2023-07-31T02:22:02;18.20;99.90
30889;DHT22;51092;50.874;7.024;2023-07-31T02:23:04;18.20;99.90
30889;DHT22;51092;50.874;7.024;2023-07-31T02:24:06;18.20;99.90
30889;DHT22;51092;50.874;7.024;2023-07-31T02:25:08;18.20;99.90
30889;DHT22;51092;50.874;7.024;2023-07-31T02:26:09;18.20;99.90
30889;DHT22;51092;50.874;7.024;2023-07-31T02:27:11;18.20;99.90
30889;DHT22;51092;50.874;7.024;2023-07-31T02:28:13;18.20;99.90
30889;DHT22;51092;50.874;7.024;2023-07-31T02:29:15;18.30;99.90
30889;DHT22;51092;50.874;7.024;2023-07-31T02:30:17;18.30;99.90
30889;DHT22;51092;50.874;7.024;2023-07-31T02:31:19;18.30;99.90
30889;DHT22;51092;50.874;7.024;2023-07-31T02:32:21;18.30;99.90
30889;DHT22;51092;50.874;7.024;2023-07-31T02:33:23;18.20;99.90
30889;DHT22;51092;50.874;7.024;2023-07-31T02:34:25;18.20;99.90
30889;DHT22;51092;50.874;7.024;2023-07-31T02:35:27;18.30;99.90
30889;DHT22;51092;50.874;7.024;2023-07-31T02:36:29;18.30;99.90
30889;DHT22;51092;50.874;7.024;2023-07-31T02:37:31;18.30;99.90
30889;DHT22;51092;50.874;7.024;2023-07-31T02:38:33;18.20;99.90
30889;DHT22;51092;50.874;7.024;2023-07-31T02:39:35;18.20;99.90
30889;DHT22;51092;50.874;7.024;2023-07-31T02:40:36;18.30;99.90
30889;DHT22;51092;50.874;7.024;2023-07-31T02:41:38;18.20;99.90
30889;DHT22;51092;50.874;7.024;2023-07-31T02:42:40;18.30;99.90
30889;DHT22;51092;50.874;7.024;2023-07-31T02:43:43;18.30;99.90
30889;DHT22;51092;50.874;7.024;2023-07-31T02:44:45;18.30;99.90
30889;DHT22;51092;50.874;7.024;2023-07-31T02:45:51;18.30;99.90
30889;DHT22;51092;50.874;7.024;2023-07-31T02:46:52;18.30;99.90
30889;DHT22;51092;50.874;7.024;2023-07-31T02:47:55;18.30;99.90
30889;DHT22;51092;50.874;7.024;2023-07-31T02:48:56;18.30;99.90
30889;DHT22;51092;50.874;7.024;2023-07-31T02:49:58;18.30;99.90
30889;DHT22;51092;50.874;7.024;2023-07-31T02:51:01;18.30;99.90
30889;DHT22;51092;50.874;7.024;2023-07-31T02:52:02;18.30;99.90
30889;DHT22;51092;50.874;7.024;2023-07-31T02:53:05;18.40;99.90
30889;DHT22;51092;50.874;7.024;2023-07-31T02:54:07;18.40;99.90
30889;DHT22;51092;50.874;7.024;2023-07-31T02:55:09;18.40;99.90
30889;DHT22;51092;50.874;7.024;2023-07-31T02:56:10;18.40;99.90
30889;DHT22;51092;50.874;7.024;2023-07-31T02:57:16;18.40;99.90
30889;DHT22;51092;50.874;7.024;2023-07-31T02:58:17;18.30;99.90
30889;DHT22;51092;50.874;7.024;2023-07-31T02:59:21;18.30;99.90
30889;DHT22;51092;50.874;7.024;2023-07-31T03:00:23;18.30;99.90
30889;DHT22;51092;50.874;7.024;2023-07-31T03:01:25;18.30;99.90
30889;DHT22;51092;50.874;7.024;2023-07-31T03:02:26;18.40;99.90
30889;DHT22;51092;50.874;7.024;2023-07-31T03:03:29;18.40;99.90
30889;DHT22;51092;50.874;7.024;2023-07-31T03:04:30;18.40;99.90
30889;DHT22;51092;50.874;7.024;2023-07-31T03:05:33;18.40;99.90
30889;DHT22;51092;50.874;7.024;2023-07-31T03:06:34;18.40;99.90
30889;DHT22;51092;50.874;7.024;2023-07-31T03:07:36;18.40;99.90
30889;DHT22;51092;50.874;7.024;2023-07-31T03:08:38;18.40;99.90
30889;DHT22;51092;50.874;7.024;2023-07-31T03:09:40;18.40;99.90
30889;DHT22;51092;50.874;7.024;2023-07-31T03:10:42;18.40;99.90
30889;DHT22;51092;50.874;7.024;2023-07-31T03:11:44;18.40;99.90
30889;DHT22;51092;50.874;7.024;2023-07-31T03:12:47;18.30;99.90
30889;DHT22;51092;50.874;7.024;2023-07-31T03:13:49;18.30;99.90
30889;DHT22;51092;50.874;7.024;2023-07-31T03:14:53;18.30;99.90
30889;DHT22;51092;50.874;7.024;2023-07-31T03:15:54;18.40;99.90
30889;DHT22;51092;50.874;7.024;2023-07-31T03:16:56;18.30;99.90
30889;DHT22;51092;50.874;7.024;2023-07-31T03:17:58;18.30;99.90
30889;DHT22;51092;50.874;7.024;2023-07-31T03:19:00;18.40;99.90
30889;DHT22;51092;50.874;7.024;2023-07-31T03:20:03;18.40;99.90
30889;DHT22;51092;50.874;7.024;2023-07-31T03:21:06;18.40;99.90
30889;DHT22;51092;50.874;7.024;2023-07-31T03:22:07;18.40;99.90
30889;DHT22;51092;50.874;7.024;2023-07-31T03:23:10;18.40;99.90
30889;DHT22;51092;50.874;7.024;2023-07-31T03:24:11;18.40;99.90
30889;DHT22;51092;50.874;7.024;2023-07-31T03:25:14;18.40;99.90
30889;DHT22;51092;50.874;7.024;2023-07-31T03:26:15;18.50;99.90
30889;DHT22;51092;50.874;7.024;2023-07-31T03:27:18;18.50;99.90
30889;DHT22;51092;50.874;7.024;2023-07-31T03:28:20;18.40;99.90
30889;DHT22;51092;50.874;7.024;2023-07-31T03:29:22;18.40;99.90
30889;DHT22;51092;50.874;7.024;2023-07-31T03:30:25;18.40;99.90
30889;DHT22;51092;50.874;7.024;2023-07-31T03:31:28;18.40;99.90
30889;DHT22;51092;50.874;7.024;2023-07-31T03:32:29;18.40;99.90
30889;DHT22;51092;50.874;7.024;2023-07-31T03:33:32;18.40;99.90
30889;DHT22;51092;50.874;7.024;2023-07-31T03:34:33;18.40;99.90
30889;DHT22;51092;50.874;7.024;2023-07-31T03:35:36;18.40;99.90
30889;DHT22;51092;50.874;7.024;2023-07-31T03:36:37;18.40;99.90
30889;DHT22;51092;50.874;7.024;2023-07-31T03:37:40;18.30;99.90
30889;DHT22;51092;50.874;7.024;2023-07-31T03:38:41;18.30;99.90
30889;DHT22;51092;50.874;7.024;2023-07-31T03:39:44;18.40;99.90
30889;DHT22;51092;50.874;7.024;2023-07-31T03:40:45;18.40;99.90
30889;DHT22;51092;50.874;7.024;2023-07-31T03:41:46;18.40;99.90
30889;DHT22;51092;50.874;7.024;2023-07-31T03:42:49;18.40;99.90
30889;DHT22;51092;50.874;7.024;2023-07-31T03:43:51;18.40;99.90
30889;DHT22;51092;50.874;7.024;2023-07-31T03:44:54;18.40;99.90
30889;DHT22;51092;50.874;7.024;2023-07-31T03:45:56;18.40;99.90
30889;DHT22;51092;50.874;7.024;2023-07-31T03:46:59;18.40;99.90
30889;DHT22;51092;50.874;7.024;2023-07-31T03:48:00;18.40;99.90
30889;DHT22;51092;50.874;7.024;2023-07-31T03:49:03;18.40;99.90
30889;DHT22;51092;50.874;7.024;2023-07-31T03:50:06;18.40;99.90
30889;DHT22;51092;50.874;7.024;2023-07-31T03:51:09;18.50;99.90
30889;DHT22;51092;50.874;7.024;2023-07-31T03:52:11;18.50;99.90
30889;DHT22;51092;50.874;7.024;2023-07-31T03:53:13;18.60;99.90
30889;DHT22;51092;50.874;7.024;2023-07-31T03:54:15;18.60;99.90
30889;DHT22;51092;50.874;7.024;2023-07-31T03:55:17;18.60;99.90
30889;DHT22;51092;50.874;7.024;2023-07-31T03:56:19;18.50;99.90
30889;DHT22;51092;50.874;7.024;2023-07-31T03:57:20;18.50;99.90
30889;DHT22;51092;50.874;7.024;2023-07-31T03:58:23;18.50;99.90
30889;DHT22;51092;50.874;7.024;2023-07-31T03:59:24;18.50;99.90
30889;DHT22;51092;50.874;7.024;2023-07-31T04:00:27;18.50;99.90
30889;DHT22;51092;50.874;7.024;2023-07-31T04:01:30;18.50;99.90
30889;DHT22;51092;50.874;7.024;2023-07-31T04:02:32;18.50;99.90
30889;DHT22;51092;50.874;7.024;2023-07-31T04:03:34;18.50;99.90
30889;DHT22;51092;50.874;7.024;2023-07-31T04:04:36;18.50;99.90
30889;DHT22;51092;50.874;7.024;2023-07-31T04:05:38;18.50;99.90
30889;DHT22;51092;50.874;7.024;2023-07-31T04:06:39;18.50;99.90
30889;DHT22;51092;50.874;7.024;2023-07-31T04:07:41;18.60;99.90
30889;DHT22;51092;50.874;7.024;2023-07-31T04:08:42;18.60;99.90
30889;DHT22;51092;50.874;7.024;2023-07-31T04:09:44;18.50;99.90
30889;DHT22;51092;50.874;7.024;2023-07-31T04:10:46;18.50;99.90
30889;DHT22;51092;50.874;7.024;2023-07-31T04:11:48;18.50;99.90
30889;DHT22;51092;50.874;7.024;2023-07-31T04:12:50;18.50;99.90
30889;DHT22;51092;50.874;7.024;2023-07-31T04:13:51;18.40;99.90
30889;DHT22;51092;50.874;7.024;2023-07-31T04:14:53;18.50;99.90
30889;DHT22;51092;50.874;7.024;2023-07-31T04:15:55;18.40;99.90
30889;DHT22;51092;50.874;7.024;2023-07-31T04:16:59;18.40;99.90
30889;DHT22;51092;50.874;7.024;2023-07-31T04:18:00;18.40;99.90
30889;DHT22;51092;50.874;7.024;2023-07-31T04:19:02;18.30;99.90
30889;DHT22;51092;50.874;7.024;2023-07-31T04:20:05;18.30;99.90
30889;DHT22;51092;50.874;7.024;2023-07-31T04:21:07;18.30;99.90
30889;DHT22;51092;50.874;7.024;2023-07-31T04:22:11;18.30;99.90
30889;DHT22;51092;50.874;7.024;2023-07-31T04:23:12;18.30;99.90
30889;DHT22;51092;50.874;7.024;2023-07-31T04:24:15;18.30;99.90
30889;DHT22;51092;50.874;7.024;2023-07-31T04:25:16;18.30;99.90
30889;DHT22;51092;50.874;7.024;2023-07-31T04:26:19;18.30;99.90
30889;DHT22;51092;50.874;7.024;2023-07-31T04:27:32;18.30;99.90
30889;DHT22;51092;50.874;7.024;2023-07-31T04:28:34;18.30;99.90
30889;DHT22;51092;50.874;7.024;2023-07-31T04:29:36;18.30;99.90
30889;DHT22;51092;50.874;7.024;2023-07-31T04:30:39;18.30;99.90
30889;DHT22;51092;50.874;7.024;2023-07-31T04:31:40;18.30;99.90
30889;DHT22;51092;50.874;7.024;2023-07-31T04:32:44;18.30;99.90
30889;DHT22;51092;50.874;7.024;2023-07-31T04:33:45;18.30;99.90
30889;DHT22;51092;50.874;7.024;2023-07-31T04:34:48;18.20;99.90
30889;DHT22;51092;50.874;7.024;2023-07-31T04:35:51;18.30;99.90
30889;DHT22;51092;50.874;7.024;2023-07-31T04:36:53;18.30;99.90
30889;DHT22;51092;50.874;7.024;2023-07-31T04:37:55;18.40;99.90
30889;DHT22;51092;50.874;7.024;2023-07-31T04:38:56;18.40;99.90
30889;DHT22;51092;50.874;7.024;2023-07-31T04:39:59;18.50;99.90
30889;DHT22;51092;50.874;7.024;2023-07-31T04:41:00;18.40;99.90
30889;DHT22;51092;50.874;7.024;2023-07-31T04:42:03;18.50;99.90
30889;DHT22;51092;50.874;7.024;2023-07-31T04:43:05;18.50;99.90
30889;DHT22;51092;50.874;7.024;2023-07-31T04:44:07;18.60;99.90
30889;DHT22;51092;50.874;7.024;2023-07-31T04:45:09;18.60;99.90
30889;DHT22;51092;50.874;7.024;2023-07-31T04:46:12;18.60;99.90
30889;DHT22;51092;50.874;7.024;2023-07-31T04:47:13;18.60;99.90
30889;DHT22;51092;50.874;7.024;2023-07-31T04:48:17;18.50;99.90
30889;DHT22;51092;50.874;7.024;2023-07-31T04:49:18;18.60;99.90
30889;DHT22;51092;50.874;7.024;2023-07-31T04:50:21;18.60;99.90
30889;DHT22;51092;50.874;7.024;2023-07-31T04:51:22;18.60;99.90
30889;DHT22;51092;50.874;7.024;2023-07-31T04:52:26;18.60;99.90
30889;DHT22;51092;50.874;7.024;2023-07-31T04:53:27;18.60;99.90
30889;DHT22;51092;50.874;7.024;2023-07-31T04:54:30;18.60;99.90
30889;DHT22;51092;50.874;7.024;2023-07-31T04:55:31;18.50;99.90
30889;DHT22;51092;50.874;7.024;2023-07-31T04:56:34;18.50;99.90
30889;DHT22;51092;50.874;7.024;2023-07-31T04:57:35;18.50;99.90
30889;DHT22;51092;50.874;7.024;2023-07-31T04:58:37;18.50;99.90
30889;DHT22;51092;50.874;7.024;2023-07-31T04:59:39;18.50;99.90
30889;DHT22;51092;50.874;7.024;2023-07-31T05:00:42;18.50;99.90
30889;DHT22;51092;50.874;7.024;2023-07-31T05:01:43;18.50;99.90
30889;DHT22;51092;50.874;7.024;2023-07-31T05:02:46;18.50;99.90
30889;DHT22;51092;50.874;7.024;2023-07-31T05:03:49;18.50;99.90
30889;DHT22;51092;50.874;7.024;2023-07-31T05:04:51;18.60;99.90
30889;DHT22;51092;50.874;7.024;2023-07-31T05:05:53;18.60;99.90
30889;DHT22;51092;50.874;7.024;2023-07-31T05:06:55;18.60;99.90
30889;DHT22;51092;50.874;7.024;2023-07-31T05:07:57;18.60;99.90
30889;DHT22;51092;50.874;7.024;2023-07-31T05:08:59;18.50;99.90
30889;DHT22;51092;50.874;7.024;2023-07-31T05:10:00;18.50;99.90
30889;DHT22;51092;50.874;7.024;2023-07-31T05:11:02;18.60;99.90
30889;DHT22;51092;50.874;7.024;2023-07-31T05:12:06;18.50;99.90
30889;DHT22;51092;50.874;7.024;2023-07-31T05:13:07;18.60;99.90
30889;DHT22;51092;50.874;7.024;2023-07-31T05:14:10;18.60;99.90
30889;DHT22;51092;50.874;7.024;2023-07-31T05:15:11;18.60;99.90
30889;DHT22;51092;50.874;7.024;2023-07-31T05:16:13;18.60;99.90
30889;DHT22;51092;50.874;7.024;2023-07-31T05:17:15;18.60;99.90
30889;DHT22;51092;50.874;7.024;2023-07-31T05:18:17;18.60;99.90
30889;DHT22;51092;50.874;7.024;2023-07-31T05:19:20;18.60;99.90
30889;DHT22;51092;50.874;7.024;2023-07-31T05:20:23;18.60;99.90
30889;DHT22;51092;50.874;7.024;2023-07-31T05:21:24;18.60;99.90
30889;DHT22;51092;50.874;7.024;2023-07-31T05:22:27;18.60;99.90
30889;DHT22;51092;50.874;7.024;2023-07-31T05:23:28;18.60;99.90
30889;DHT22;51092;50.874;7.024;2023-07-31T05:24:32;18.70;99.90
30889;DHT22;51092;50.874;7.024;2023-07-31T05:25:34;18.70;99.90
30889;DHT22;51092;50.874;7.024;2023-07-31T05:26:37;18.70;99.90
30889;DHT22;51092;50.874;7.024;2023-07-31T05:27:39;18.80;99.90
30889;DHT22;51092;50.874;7.024;2023-07-31T05:28:41;18.80;99.90
30889;DHT22;51092;50.874;7.024;2023-07-31T05:29:43;18.80;99.90
30889;DHT22;51092;50.874;7.024;2023-07-31T05:30:45;18.80;99.90
30889;DHT22;51092;50.874;7.024;2023-07-31T05:31:47;18.80;99.90
30889;DHT22;51092;50.874;7.024;2023-07-31T05:32:49;18.90;99.90
30889;DHT22;51092;50.874;7.024;2023-07-31T05:33:51;18.90;99.90
30889;DHT22;51092;50.874;7.024;2023-07-31T05:34:54;18.90;99.90
30889;DHT22;51092;50.874;7.024;2023-07-31T05:35:56;18.90;99.90
30889;DHT22;51092;50.874;7.024;2023-07-31T05:36:58;18.90;99.90
30889;DHT22;51092;50.874;7.024;2023-07-31T05:38:00;18.80;99.90
30889;DHT22;51092;50.874;7.024;2023-07-31T05:39:02;18.80;99.90
30889;DHT22;51092;50.874;7.024;2023-07-31T05:40:08;18.80;99.90
30889;DHT22;51092;50.874;7.024;2023-07-31T05:41:11;18.80;99.90
30889;DHT22;51092;50.874;7.024;2023-07-31T05:42:12;18.80;99.90
30889;DHT22;51092;50.874;7.024;2023-07-31T05:43:15;18.80;99.90
30889;DHT22;51092;50.874;7.024;2023-07-31T05:44:16;18.80;99.90
30889;DHT22;51092;50.874;7.024;2023-07-31T05:45:19;18.80;99.90
30889;DHT22;51092;50.874;7.024;2023-07-31T05:46:20;18.80;99.90
30889;DHT22;51092;50.874;7.024;2023-07-31T05:47:23;18.80;99.90
30889;DHT22;51092;50.874;7.024;2023-07-31T05:48:25;18.80;99.90
30889;DHT22;51092;50.874;7.024;2023-07-31T05:49:27;18.80;99.90
30889;DHT22;51092;50.874;7.024;2023-07-31T05:50:30;18.80;99.90
30889;DHT22;51092;50.874;7.024;2023-07-31T05:51:33;18.80;99.90
30889;DHT22;51092;50.874;7.024;2023-07-31T05:52:34;18.80;99.90
30889;DHT22;51092;50.874;7.024;2023-07-31T05:53:37;18.80;99.90
30889;DHT22;51092;50.874;7.024;2023-07-31T05:54:42;18.80;99.90
30889;DHT22;51092;50.874;7.024;2023-07-31T05:55:44;18.70;99.90
30889;DHT22;51092;50.874;7.024;2023-07-31T05:56:45;18.80;99.90
30889;DHT22;51092;50.874;7.024;2023-07-31T05:57:48;18.80;99.90
30889;DHT22;51092;50.874;7.024;2023-07-31T05:58:49;18.80;99.90
30889;DHT22;51092;50.874;7.024;2023-07-31T05:59:51;18.80;99.90
30889;DHT22;51092;50.874;7.024;2023-07-31T06:00:54;18.80;99.90
30889;DHT22;51092;50.874;7.024;2023-07-31T06:01:56;18.80;99.90
30889;DHT22;51092;50.874;7.024;2023-07-31T06:02:58;18.80;99.90
30889;DHT22;51092;50.874;7.024;2023-07-31T06:03:59;18.80;99.90
30889;DHT22;51092;50.874;7.024;2023-07-31T06:05:04;18.80;99.90
30889;DHT22;51092;50.874;7.024;2023-07-31T06:06:08;18.80;99.90
30889;DHT22;51092;50.874;7.024;2023-07-31T06:07:10;18.80;99.90
30889;DHT22;51092;50.874;7.024;2023-07-31T06:08:12;18.90;99.90
30889;DHT22;51092;50.874;7.024;2023-07-31T06:09:14;18.80;99.90
30889;DHT22;51092;50.874;7.024;2023-07-31T06:10:16;18.80;99.90
30889;DHT22;51092;50.874;7.024;2023-07-31T06:11:19;18.80;99.90
30889;DHT22;51092;50.874;7.024;2023-07-31T06:12:20;18.80;99.90
30889;DHT22;51092;50.874;7.024;2023-07-31T06:13:23;18.80;99.90
30889;DHT22;51092;50.874;7.024;2023-07-31T06:14:24;18.80;99.90
30889;DHT22;51092;50.874;7.024;2023-07-31T06:15:27;18.80;99.90
30889;DHT22;51092;50.874;7.024;2023-07-31T06:16:28;18.80;99.90
30889;DHT22;51092;50.874;7.024;2023-07-31T06:17:31;18.70;99.90
30889;DHT22;51092;50.874;7.024;2023-07-31T06:18:32;18.70;99.90
30889;DHT22;51092;50.874;7.024;2023-07-31T06:19:35;18.70;99.90
30889;DHT22;51092;50.874;7.024;2023-07-31T06:20:36;18.60;99.90
30889;DHT22;51092;50.874;7.024;2023-07-31T06:21:43;18.70;99.90
30889;DHT22;51092;50.874;7.024;2023-07-31T06:22:45;18.60;99.90
30889;DHT22;51092;50.874;7.024;2023-07-31T06:23:47;18.50;99.90
30889;DHT22;51092;50.874;7.024;2023-07-31T06:24:49;18.40;99.90
30889;DHT22;51092;50.874;7.024;2023-07-31T06:25:51;18.40;99.90
30889;DHT22;51092;50.874;7.024;2023-07-31T06:26:52;18.30;99.90
30889;DHT22;51092;50.874;7.024;2023-07-31T06:27:55;18.30;99.90
30889;DHT22;51092;50.874;7.024;2023-07-31T06:28:56;18.30;99.90
30889;DHT22;51092;50.874;7.024;2023-07-31T06:29:58;18.20;99.90
30889;DHT22;51092;50.874;7.024;2023-07-31T06:31:00;18.20;99.90
30889;DHT22;51092;50.874;7.024;2023-07-31T06:32:02;18.10;99.90
30889;DHT22;51092;50.874;7.024;2023-07-31T06:33:05;18.10;99.90
30889;DHT22;51092;50.874;7.024;2023-07-31T06:34:06;18.00;99.90
30889;DHT22;51092;50.874;7.024;2023-07-31T06:35:09;18.00;99.90